Time;durP1;ratioP1;P1;durP2;ratioP2;P2;SDS_P1;SDS_P2;PMS_P1;PMS_P2;Temp;Humidity;BMP_temperature;BMP_pressure;BME280_temperature;BME280_humidity;BME280_pressure;Samples;Min_cycle;Max_cycle;Signal;HPM_P1;HPM_P2
2021/11/14 00:00:49;;;;;;;;;10.00;10.00;;;;;14.20;65.99;101206.75;2093027;27;45385;-68
2021/11/14 00:01:50;;;;;;;;;10.00;10.00;;;;;14.20;65.69;101211.22;2092359;28;47030;-69
2021/11/14 00:02:54;;;;;;;;;11.67;11.67;;;;;14.19;65.99;101210.34;2084835;28;48164;-68
2021/11/14 00:03:55;;;;;;;;;11.50;11.50;;;;;14.19;66.33;101205.00;2090803;28;48201;-71
2021/11/14 00:04:56;;;;;;;;;13.33;13.33;;;;;14.19;66.13;101210.34;2094297;27;47028;-69
2021/11/14 00:05:56;;;;;;;;;8.00;7.67;;;;;14.20;66.07;101212.09;2092461;28;47153;-69
2021/11/14 00:06:57;;;;;;;;;9.33;9.33;;;;;14.20;66.06;101219.22;2094414;28;48137;-67
2021/11/14 00:07:57;;;;;;;;;11.33;10.00;;;;;14.19;66.13;101213.03;2094258;28;47258;-70
2021/11/14 00:08:58;;;;;;;;;10.67;10.00;;;;;14.20;65.82;101216.56;2093174;27;47620;-69
2021/11/14 00:09:59;;;;;;;;;12.67;12.00;;;;;14.20;66.26;101220.09;2095441;28;47182;-70
2021/11/14 00:11:04;;;;;;;;;8.50;8.00;;;;;14.19;66.05;101221.03;2089360;28;47448;-69
2021/11/14 00:12:05;;;;;;;;;9.00;9.00;;;;;14.19;66.38;101220.16;2092142;28;46674;-69
2021/11/14 00:13:06;;;;;;;;;8.67;8.67;;;;;14.20;65.93;101216.56;2090691;27;47161;-70
2021/11/14 00:14:06;;;;;;;;;12.00;11.00;;;;;14.19;66.13;101220.16;2092744;28;47377;-69
2021/11/14 00:15:08;;;;;;;;;11.67;10.00;;;;;14.19;66.28;101217.50;2102251;27;47359;-70
2021/11/14 00:16:10;;;;;;;;;6.50;6.50;;;;;14.20;66.20;101219.22;2090944;28;46928;-70
2021/11/14 00:17:11;;;;;;;;;9.00;9.00;;;;;14.20;66.45;101221.91;2091984;28;45441;-69
2021/11/14 00:18:12;;;;;;;;;10.00;10.00;;;;;14.20;66.29;101220.09;2102976;27;47136;-69
2021/11/14 00:19:13;;;;;;;;;10.50;9.75;;;;;14.21;66.02;101220.97;2093669;28;47957;-69
2021/11/14 00:20:14;;;;;;;;;15.00;11.00;;;;;14.20;66.03;101213.91;2093523;27;46412;-71
2021/11/14 00:21:18;;;;;;;;;12.75;11.75;;;;;14.21;66.16;101212.97;2092501;28;47480;-68
2021/11/14 00:22:18;;;;;;;;;11.50;10.25;;;;;14.22;66.34;101217.41;2084313;28;45365;-71
2021/11/14 00:23:19;;;;;;;;;9.67;9.67;;;;;14.21;66.17;101213.84;2094062;28;47100;-70
2021/11/14 00:24:20;;;;;;;;;10.75;10.75;;;;;14.23;66.17;101213.81;2094621;28;46301;-70
2021/11/14 00:25:21;;;;;;;;;9.00;9.00;;;;;14.23;66.08;101211.13;2092116;28;47546;-70
2021/11/14 00:26:22;;;;;;;;;11.33;11.33;;;;;14.23;66.35;101214.72;2092593;27;47227;-70
2021/11/14 00:27:23;;;;;;;;;11.00;11.00;;;;;14.24;66.37;101220.91;2096866;28;45827;-70
2021/11/14 00:28:23;;;;;;;;;9.67;9.00;;;;;14.24;66.06;101215.59;2095344;28;47509;-68
2021/11/14 00:29:24;;;;;;;;;10.33;8.00;;;;;14.22;65.75;101210.25;2085106;28;45152;-69
2021/11/14 00:30:25;;;;;;;;;11.00;10.00;;;;;14.23;66.30;101213.81;2082893;28;48033;-70
2021/11/14 00:31:25;;;;;;;;;12.00;11.00;;;;;14.22;66.06;101212.94;2092602;28;47153;-70
2021/11/14 00:32:26;;;;;;;;;12.00;12.00;;;;;14.22;66.22;101212.94;2091169;28;48040;-70
2021/11/14 00:33:27;;;;;;;;;11.00;11.00;;;;;14.21;66.07;101213.84;2098952;28;48507;-70
2021/11/14 00:34:28;;;;;;;;;10.33;10.33;;;;;14.22;66.22;101215.59;2092021;28;48462;-71
2021/11/14 00:35:29;;;;;;;;;10.00;10.00;;;;;14.21;66.08;101212.97;2096314;27;46866;-71
2021/11/14 00:36:40;;;;;;;;;9.25;9.25;;;;;14.21;66.36;101210.31;2098024;27;47237;-71
2021/11/14 00:37:41;;;;;;;;;9.50;9.00;;;;;14.21;66.08;101213.84;2091832;28;47093;-69
2021/11/14 00:38:43;;;;;;;;;9.50;9.50;;;;;14.22;66.28;101212.94;2096533;28;47137;-70
2021/11/14 00:39:44;;;;;;;;;10.25;10.00;;;;;14.22;66.07;101210.25;2098007;28;48131;-69
2021/11/14 00:40:46;;;;;;;;;10.25;9.75;;;;;14.22;66.05;101215.59;2092935;27;48076;-69
2021/11/14 00:41:48;;;;;;;;;11.75;11.75;;;;;14.21;65.97;101216.53;2088576;28;45002;-70
2021/11/14 00:42:49;;;;;;;;;11.75;11.75;;;;;14.22;65.97;101214.72;2094270;28;46891;-71
2021/11/14 00:43:51;;;;;;;;;11.50;11.00;;;;;14.21;66.22;101211.19;2092686;27;46613;-69
2021/11/14 00:44:52;;;;;;;;;10.80;10.80;;;;;14.21;66.34;101218.31;2094903;28;48082;-70
2021/11/14 00:45:53;;;;;;;;;12.67;10.33;;;;;14.21;66.10;101218.31;2092834;28;47230;-70
2021/11/14 00:46:53;;;;;;;;;8.50;8.50;;;;;14.21;66.10;101215.66;2094564;27;47154;-68
2021/11/14 00:47:55;;;;;;;;;11.33;11.00;;;;;14.21;66.18;101215.66;2093646;28;47259;-70
2021/11/14 00:48:55;;;;;;;;;10.50;9.25;;;;;14.21;65.98;101210.31;2092613;27;47855;-69
2021/11/14 00:49:56;;;;;;;;;11.00;11.00;;;;;14.20;65.92;101213.91;2093872;27;47257;-68
2021/11/14 00:50:57;;;;;;;;;13.00;11.67;;;;;14.20;66.28;101221.91;2095548;28;46445;-69
2021/11/14 00:51:57;;;;;;;;;10.50;10.25;;;;;14.21;66.04;101218.31;2092851;27;47732;-68
2021/11/14 00:53:00;;;;;;;;;10.00;10.00;;;;;14.20;66.38;101222.78;2096659;28;46667;-68
2021/11/14 00:54:03;;;;;;;;;11.25;11.25;;;;;14.20;66.49;101219.22;2094460;28;46571;-69
2021/11/14 00:55:05;;;;;;;;;9.50;9.50;;;;;14.20;66.11;101216.56;2094926;27;47526;-69
2021/11/14 00:56:06;;;;;;;;;12.50;11.00;;;;;14.21;65.97;101212.97;2095875;28;48607;-69
2021/11/14 00:57:07;;;;;;;;;12.75;12.25;;;;;14.21;66.30;101218.31;2092382;28;47285;-69
2021/11/14 00:58:08;;;;;;;;;10.75;9.50;;;;;14.21;66.43;101218.31;2095938;27;46928;-69
2021/11/14 00:59:09;;;;;;;;;10.00;10.00;;;;;14.21;66.12;101219.19;2096770;28;46987;-70
2021/11/14 01:00:21;;;;;;;;;11.00;11.00;;;;;14.21;66.22;101216.53;2092963;27;48869;-69
2021/11/14 01:01:23;;;;;;;;;9.50;9.00;;;;;14.20;66.06;101212.09;2093167;27;48315;-68
2021/11/14 01:02:24;;;;;;;;;10.50;9.75;;;;;14.20;65.96;101214.78;2097167;28;48178;-68
2021/11/14 01:03:25;;;;;;;;;12.00;12.00;;;;;14.20;66.07;101216.56;2091826;28;47596;-69
2021/11/14 01:04:25;;;;;;;;;10.00;10.00;;;;;14.22;66.15;101214.72;2092629;28;45811;-69
2021/11/14 01:05:27;;;;;;;;;10.67;10.00;;;;;14.22;66.28;101214.72;2090236;28;47275;-69
2021/11/14 01:06:28;;;;;;;;;9.75;9.75;;;;;14.21;66.15;101216.53;2091495;28;47127;-68
2021/11/14 01:07:28;;;;;;;;;12.00;11.00;;;;;14.22;66.07;101214.72;2096672;28;47608;-70
2021/11/14 01:08:29;;;;;;;;;10.00;10.00;;;;;14.21;66.06;101219.19;2100447;27;47370;-69
2021/11/14 01:09:29;;;;;;;;;11.00;9.67;;;;;14.21;66.20;101211.19;2101043;27;45392;-69
2021/11/14 01:10:34;;;;;;;;;10.33;10.33;;;;;14.21;65.96;101216.53;2093405;28;47533;-69
2021/11/14 01:11:35;;;;;;;;;12.00;10.75;;;;;14.21;66.32;101215.66;2090361;28;46090;-69
2021/11/14 01:12:36;;;;;;;;;10.33;10.33;;;;;14.21;66.11;101219.19;2102088;27;48284;-68
2021/11/14 01:13:38;;;;;;;;;9.00;9.00;;;;;14.22;66.22;101215.59;2102524;27;46674;-69
2021/11/14 01:14:39;;;;;;;;;10.33;10.33;;;;;14.23;66.16;101216.47;2091913;28;47288;-69
2021/11/14 01:15:40;;;;;;;;;10.00;10.00;;;;;14.22;66.56;101217.41;2091307;28;46274;-70
2021/11/14 01:16:41;;;;;;;;;9.75;9.75;;;;;14.22;66.31;101218.25;2095956;28;47848;-71
2021/11/14 01:17:42;;;;;;;;;9.00;9.00;;;;;14.22;66.21;101215.59;2091723;27;47400;-69
2021/11/14 01:18:43;;;;;;;;;12.00;11.25;;;;;14.22;66.39;101215.59;2096568;27;47402;-69
2021/11/14 01:19:44;;;;;;;;;11.00;11.00;;;;;14.23;66.45;101216.47;2091482;28;46068;-69
2021/11/14 01:20:48;;;;;;;;;10.67;10.00;;;;;14.24;66.27;101213.78;2083508;28;47083;-68
2021/11/14 01:21:48;;;;;;;;;10.50;10.50;;;;;14.24;66.23;101218.25;2091044;28;47156;-68
2021/11/14 01:22:51;;;;;;;;;9.67;9.67;;;;;14.24;66.21;101216.44;2094152;28;48426;-69
2021/11/14 01:23:53;;;;;;;;;11.75;9.50;;;;;14.25;66.43;101218.19;2090447;27;47468;-68
2021/11/14 01:24:54;;;;;;;;;12.50;11.50;;;;;14.25;66.38;101223.53;2094788;28;45397;-68
2021/11/14 01:25:55;;;;;;;;;14.00;14.00;;;;;14.26;66.27;101222.63;2091842;28;47061;-69
2021/11/14 01:26:55;;;;;;;;;11.67;10.67;;;;;14.26;66.31;101225.28;2090952;28;48271;-68
2021/11/14 01:27:57;;;;;;;;;9.00;9.00;;;;;14.26;66.21;101224.41;2095965;28;48122;-70
2021/11/14 01:28:57;;;;;;;;;9.00;9.00;;;;;14.26;66.21;101224.41;2091908;27;48098;-67
2021/11/14 01:29:58;;;;;;;;;9.00;9.00;;;;;14.26;66.21;101221.75;2097075;27;47021;-68
2021/11/14 01:30:59;;;;;;;;;11.25;10.00;;;;;14.28;66.15;101225.25;2094860;28;48343;-69
2021/11/14 01:32:00;;;;;;;;;11.00;9.33;;;;;14.27;65.96;101226.16;2090899;27;45479;-68
2021/11/14 01:33:04;;;;;;;;;12.00;12.00;;;;;14.26;66.00;101225.28;2094817;28;47321;-69
2021/11/14 01:34:05;;;;;;;;;10.80;10.80;;;;;14.26;66.41;101219.94;2093372;28;47275;-68
2021/11/14 01:35:08;;;;;;;;;11.50;11.50;;;;;14.27;66.13;101218.16;2094250;27;45635;-69
2021/11/14 01:36:08;;;;;;;;;11.00;11.00;;;;;14.26;66.23;101222.63;2097244;28;47376;-68
2021/11/14 01:37:09;;;;;;;;;10.67;10.00;;;;;14.27;66.42;101215.50;2092653;28;48344;-68
2021/11/14 01:38:09;;;;;;;;;11.33;10.33;;;;;14.26;66.51;101213.75;2095477;27;47005;-68
2021/11/14 01:39:10;;;;;;;;;10.33;9.33;;;;;14.26;66.29;101219.06;2096352;28;47211;-69
2021/11/14 01:40:15;;;;;;;;;8.00;8.00;;;;;14.25;66.44;101220.00;2100799;27;47322;-68
2021/11/14 01:41:15;;;;;;;;;13.00;12.00;;;;;14.25;66.16;101220.00;2086770;27;47250;-69
2021/11/14 01:42:16;;;;;;;;;12.33;12.33;;;;;14.25;66.58;101222.66;2091940;28;48440;-68
2021/11/14 01:43:21;;;;;;;;;9.67;9.67;;;;;14.25;66.25;101220.88;2091735;27;46863;-69
2021/11/14 01:44:22;;;;;;;;;11.00;11.00;;;;;14.25;66.21;101220.00;2085301;28;47539;-70
2021/11/14 01:45:23;;;;;;;;;11.67;10.00;;;;;14.23;66.15;101214.72;2086352;28;47043;-69
2021/11/14 01:46:24;;;;;;;;;11.00;11.00;;;;;14.22;66.11;101218.25;2091120;28;45264;-68
2021/11/14 01:47:24;;;;;;;;;13.00;11.00;;;;;14.22;66.29;101220.94;2092105;28;47261;-69
2021/11/14 01:48:26;;;;;;;;;11.33;11.33;;;;;14.22;66.22;101220.06;2100514;27;47058;-69
2021/11/14 01:49:26;;;;;;;;;11.00;10.25;;;;;14.22;66.31;101214.72;2092021;27;47339;-68
2021/11/14 01:50:27;;;;;;;;;11.00;11.00;;;;;14.21;66.39;101223.66;2093335;28;47897;-69
2021/11/14 01:51:28;;;;;;;;;12.00;11.00;;;;;14.20;66.22;101224.56;2090883;28;46998;-69
2021/11/14 01:52:30;;;;;;;;;13.00;13.00;;;;;14.20;66.73;101222.78;2092846;28;46551;-69
2021/11/14 01:53:34;;;;;;;;;11.40;11.20;;;;;14.20;66.30;101220.09;2092745;28;47183;-69
2021/11/14 01:54:35;;;;;;;;;11.75;10.75;;;;;14.21;66.39;101229.00;2091473;28;47269;-69
2021/11/14 01:55:41;;;;;;;;;10.00;10.00;;;;;14.20;66.28;101224.56;2091327;28;47186;-69
2021/11/14 01:56:42;;;;;;;;;10.00;10.00;;;;;14.20;66.44;101225.44;2091416;28;47810;-69
2021/11/14 01:57:43;;;;;;;;;9.00;8.67;;;;;14.21;66.65;101223.66;2091137;28;45540;-68
2021/11/14 01:58:45;;;;;;;;;9.50;9.50;;;;;14.20;66.44;101221.91;2094491;28;47587;-69
2021/11/14 01:59:47;;;;;;;;;11.40;11.40;;;;;14.21;66.57;101229.00;2095686;28;48182;-68
2021/11/14 02:01:14;;;;;;;;;9.25;9.00;;;;;14.19;66.25;101225.50;2091378;28;47428;-69
2021/11/14 02:02:15;;;;;;;;;11.25;10.75;;;;;14.19;66.75;101229.03;2091955;28;45257;-69
2021/11/14 02:03:16;;;;;;;;;11.00;9.33;;;;;14.21;66.39;101229.00;2094718;28;47610;-68
2021/11/14 02:04:19;;;;;;;;;10.00;10.00;;;;;14.20;66.39;101233.47;2091837;27;47886;-70
2021/11/14 02:05:23;;;;;;;;;10.50;10.50;;;;;14.21;66.44;101239.66;2090569;28;47420;-69
2021/11/14 02:06:26;;;;;;;;;10.25;10.25;;;;;14.20;66.53;101232.59;2093061;28;47431;-69
2021/11/14 02:07:26;;;;;;;;;9.75;9.75;;;;;14.19;66.49;101229.03;2091846;28;47198;-68
2021/11/14 02:08:27;;;;;;;;;9.67;9.67;;;;;14.19;66.49;101231.72;2088592;28;48323;-69
2021/11/14 02:09:27;;;;;;;;;9.00;9.00;;;;;14.18;66.17;101229.97;2093925;28;45109;-69
2021/11/14 02:10:29;;;;;;;;;9.67;9.00;;;;;14.18;66.54;101239.75;2085704;28;47778;-69
2021/11/14 02:11:31;;;;;;;;;8.75;8.75;;;;;14.17;66.39;101232.69;2084719;28;47775;-69
2021/11/14 02:12:32;;;;;;;;;10.00;9.50;;;;;14.16;66.61;101233.59;2088649;28;46098;-69
2021/11/14 02:13:32;;;;;;;;;8.25;8.25;;;;;14.16;66.28;101238.94;2091319;27;48441;-69
2021/11/14 02:14:33;;;;;;;;;11.00;10.00;;;;;14.14;66.63;101236.31;2093764;28;47958;-68
2021/11/14 02:15:35;;;;;;;;;11.00;10.00;;;;;14.14;66.31;101238.97;2087302;28;47409;-68
2021/11/14 02:16:36;;;;;;;;;12.25;11.00;;;;;14.15;66.41;101243.41;2088642;28;47284;-69
2021/11/14 02:17:37;;;;;;;;;9.67;9.67;;;;;14.15;66.51;101243.41;2095717;28;47270;-68
2021/11/14 02:18:38;;;;;;;;;9.33;8.33;;;;;14.15;66.64;101246.06;2091515;28;48323;-70
2021/11/14 02:19:38;;;;;;;;;10.00;9.67;;;;;14.16;66.53;101237.13;2094923;28;45480;-69
2021/11/14 02:20:40;;;;;;;;;9.33;9.33;;;;;14.16;66.52;101237.13;2099076;27;47326;-69
2021/11/14 02:21:41;;;;;;;;;11.25;11.25;;;;;14.16;66.44;101239.81;2088370;27;47951;-68
2021/11/14 02:22:42;;;;;;;;;12.00;10.67;;;;;14.18;66.36;101242.44;2090907;27;46770;-68
2021/11/14 02:23:43;;;;;;;;;10.00;9.00;;;;;14.17;66.58;101241.56;2090057;28;47351;-70
2021/11/14 02:24:44;;;;;;;;;11.00;11.00;;;;;14.16;66.45;101236.28;2090483;28;47175;-69
2021/11/14 02:25:47;;;;;;;;;10.00;10.00;;;;;14.16;66.42;101237.13;2107494;27;46153;-67
2021/11/14 02:26:48;;;;;;;;;14.00;11.50;;;;;14.16;66.61;101236.28;2099012;27;46871;-69
2021/11/14 02:27:51;;;;;;;;;12.33;11.33;;;;;14.16;66.39;101244.28;2090839;28;47401;-69
2021/11/14 02:28:53;;;;;;;;;10.25;10.00;;;;;14.15;66.42;101235.41;2090538;28;47698;-68
2021/11/14 02:29:53;;;;;;;;;11.75;10.25;;;;;14.15;66.61;101240.72;2090767;28;46399;-68
2021/11/14 02:30:57;;;;;;;;;13.00;11.67;;;;;14.14;66.63;101231.84;2087924;28;47178;-69
2021/11/14 02:31:58;;;;;;;;;12.00;10.50;;;;;14.14;66.52;101233.66;2086653;28;45420;-68
2021/11/14 02:32:59;;;;;;;;;9.67;9.67;;;;;14.15;66.79;101232.72;2088338;28;48299;-70
2021/11/14 02:34:00;;;;;;;;;11.00;10.00;;;;;14.15;66.53;101232.72;2099238;28;48335;-68
2021/11/14 02:35:01;;;;;;;;;10.67;10.00;;;;;14.16;66.75;101233.59;2099182;28;47331;-70
2021/11/14 02:36:09;;;;;;;;;11.67;10.67;;;;;14.16;66.64;101236.28;2091064;28;46240;-70
2021/11/14 02:37:09;;;;;;;;;12.00;11.25;;;;;14.16;66.93;101238.94;2090313;28;48543;-69
2021/11/14 02:38:10;;;;;;;;;10.67;10.67;;;;;14.16;66.75;101230.94;2090862;28;46886;-70
2021/11/14 02:39:11;;;;;;;;;9.00;9.00;;;;;14.16;66.84;101233.59;2076988;28;47087;-70
2021/11/14 02:40:14;;;;;;;;;9.67;9.33;;;;;14.17;66.78;101230.88;2090937;28;47465;-68
2021/11/14 02:41:16;;;;;;;;;9.00;7.75;;;;;14.17;66.75;101244.22;2107307;27;45318;-69
2021/11/14 02:42:16;;;;;;;;;9.50;9.50;;;;;14.14;66.81;101229.19;2098883;28;47821;-67
2021/11/14 02:43:18;;;;;;;;;12.00;12.00;;;;;14.16;66.82;101237.13;2090350;28;48470;-68
2021/11/14 02:44:19;;;;;;;;;10.00;9.75;;;;;14.16;66.69;101233.59;2083011;28;48524;-68
2021/11/14 02:45:24;;;;;;;;;13.00;12.33;;;;;14.15;67.13;101230.06;2083669;28;47918;-68
2021/11/14 02:46:25;;;;;;;;;11.50;10.50;;;;;14.16;66.75;101230.94;2091301;27;48117;-69
2021/11/14 02:47:25;;;;;;;;;13.33;9.00;;;;;14.16;66.91;101229.13;2090482;28;47141;-69
2021/11/14 02:48:26;;;;;;;;;9.67;9.67;;;;;14.16;67.13;101230.94;2091043;28;47039;-70
2021/11/14 02:49:26;;;;;;;;;13.67;12.00;;;;;14.17;66.81;101230.00;2091193;28;45565;-69
2021/11/14 02:50:27;;;;;;;;;11.00;10.00;;;;;14.16;66.70;101222.91;2091657;28;47259;-70
2021/11/14 02:51:30;;;;;;;;;11.00;10.00;;;;;14.16;67.09;101228.25;2098888;28;47333;-69
2021/11/14 02:52:30;;;;;;;;;11.00;11.00;;;;;14.14;66.89;101222.97;2099021;28;47385;-68
2021/11/14 02:53:31;;;;;;;;;11.00;9.33;;;;;14.16;67.25;101230.94;2090374;28;47275;-69
2021/11/14 02:54:32;;;;;;;;;13.33;10.67;;;;;14.13;66.90;101222.09;2090861;28;48255;-68
2021/11/14 02:55:34;;;;;;;;;9.00;9.00;;;;;14.14;67.10;101228.31;2094882;28;47754;-68
2021/11/14 02:56:35;;;;;;;;;11.50;9.75;;;;;14.13;66.64;101223.88;2087921;28;47686;-69
2021/11/14 02:57:36;;;;;;;;;6.75;6.75;;;;;14.12;67.02;101223.00;2098768;28;48422;-68
2021/11/14 02:58:38;;;;;;;;;10.33;10.33;;;;;14.11;67.13;101218.59;2099073;28;47383;-69
2021/11/14 02:59:39;;;;;;;;;12.50;10.25;;;;;14.10;66.87;101216.84;2091294;28;47997;-69
2021/11/14 03:01:00;;;;;;;;;9.25;9.00;;;;;14.11;66.83;101223.06;2097702;28;47213;-69
2021/11/14 03:02:01;;;;;;;;;7.75;7.75;;;;;14.10;66.86;101223.94;2090896;28;47275;-70
2021/11/14 03:03:01;;;;;;;;;10.25;10.25;;;;;14.09;66.92;101228.41;2084060;28;48292;-70
2021/11/14 03:04:03;;;;;;;;;13.67;12.33;;;;;14.09;67.11;101230.22;2091329;28;47376;-69
2021/11/14 03:05:14;;;;;;;;;10.75;10.75;;;;;14.08;66.92;101225.78;2091373;28;45399;-68
2021/11/14 03:06:15;;;;;;;;;11.50;10.00;;;;;14.07;67.06;101221.38;2084443;28;47192;-69
2021/11/14 03:07:16;;;;;;;;;12.25;11.50;;;;;14.07;67.04;101224.91;2098853;28;48289;-68
2021/11/14 03:08:16;;;;;;;;;10.67;10.33;;;;;14.07;66.93;101222.25;2091123;27;48510;-69
2021/11/14 03:09:17;;;;;;;;;12.00;10.00;;;;;14.06;66.96;101220.50;2091052;28;47865;-68
2021/11/14 03:10:22;;;;;;;;;11.33;10.00;;;;;14.06;66.86;101217.84;2090661;28;48048;-68
2021/11/14 03:11:23;;;;;;;;;13.75;13.00;;;;;14.05;66.96;101216.09;2089723;28;45595;-68
2021/11/14 03:12:23;;;;;;;;;9.25;9.25;;;;;14.06;67.03;101222.28;2090267;28;48202;-67
2021/11/14 03:13:24;;;;;;;;;12.33;11.67;;;;;14.05;66.86;101218.75;2090606;28;48212;-68
2021/11/14 03:14:25;;;;;;;;;7.67;7.00;;;;;14.05;67.16;101221.44;2099007;28;47110;-69
2021/11/14 03:15:29;;;;;;;;;11.33;10.00;;;;;14.04;67.11;101219.69;2083195;28;47023;-71
2021/11/14 03:16:30;;;;;;;;;10.00;9.50;;;;;14.04;67.11;101227.69;2099019;28;47308;-69
2021/11/14 03:17:31;;;;;;;;;9.75;9.75;;;;;14.03;67.12;101223.25;2098839;28;47473;-69
2021/11/14 03:18:32;;;;;;;;;9.33;9.33;;;;;14.04;67.00;101224.13;2098786;28;48190;-68
2021/11/14 03:19:32;;;;;;;;;9.00;9.00;;;;;14.04;67.36;101221.47;2090266;28;47314;-69
2021/11/14 03:20:35;;;;;;;;;10.33;10.33;;;;;14.03;66.93;101220.59;2087481;28;48138;-68
2021/11/14 03:21:35;;;;;;;;;10.50;9.50;;;;;14.03;66.95;101217.94;2090768;28;47232;-69
2021/11/14 03:22:37;;;;;;;;;9.00;9.00;;;;;14.02;66.96;101221.53;2089077;28;47212;-70
2021/11/14 03:23:38;;;;;;;;;9.25;8.25;;;;;14.03;66.92;101220.59;2084442;28;47710;-70
2021/11/14 03:24:40;;;;;;;;;8.25;8.25;;;;;14.03;67.13;101227.72;2090953;28;48014;-70
2021/11/14 03:25:42;;;;;;;;;9.75;9.50;;;;;14.03;67.03;101228.59;2091271;28;45788;-69
2021/11/14 03:26:43;;;;;;;;;8.25;8.25;;;;;14.03;67.28;101230.41;2090923;28;47237;-69
2021/11/14 03:27:44;;;;;;;;;11.00;10.75;;;;;14.02;66.96;101221.53;2091399;27;48155;-68
2021/11/14 03:28:45;;;;;;;;;8.33;7.67;;;;;14.03;67.14;101222.38;2091049;28;48550;-69
2021/11/14 03:29:46;;;;;;;;;10.00;7.75;;;;;14.02;67.29;101224.19;2091366;28;45478;-69
2021/11/14 03:30:49;;;;;;;;;9.00;9.00;;;;;14.03;67.14;101220.59;2090194;28;47250;-69
2021/11/14 03:31:49;;;;;;;;;11.00;8.00;;;;;14.02;67.15;101225.97;2099226;27;46114;-70
2021/11/14 03:32:51;;;;;;;;;12.00;12.00;;;;;14.03;67.15;101230.41;2098856;28;47588;-69
2021/11/14 03:33:52;;;;;;;;;8.00;8.00;;;;;14.04;67.08;101229.47;2090582;28;47719;-69
2021/11/14 03:34:52;;;;;;;;;10.33;10.33;;;;;14.04;67.30;101224.13;2090963;28;47143;-70
2021/11/14 03:36:05;;;;;;;;;10.33;9.00;;;;;14.03;67.31;101233.06;2092489;28;47879;-69
2021/11/14 03:37:20;;;;;;;;;12.25;10.00;;;;;14.04;67.26;101235.69;2088957;27;47036;-69
2021/11/14 03:38:24;;;;;;;;;8.00;7.75;;;;;14.05;66.94;101233.91;2087829;28;46269;-69
2021/11/14 03:39:25;;;;;;;;;11.00;9.25;;;;;14.05;67.25;101231.22;2091867;28;47367;-69
2021/11/14 03:40:25;;;;;;;;;5.33;5.33;;;;;14.05;67.21;101231.22;2091742;28;46163;-70
2021/11/14 03:41:30;;;;;;;;;7.00;7.00;;;;;14.06;67.16;101235.63;2092301;28;47323;-69
2021/11/14 03:42:31;;;;;;;;;7.00;7.00;;;;;14.06;67.00;101236.50;2089108;28;45483;-69
2021/11/14 03:43:32;;;;;;;;;10.33;8.33;;;;;14.07;67.05;101237.38;2089916;28;47103;-69
2021/11/14 03:44:33;;;;;;;;;9.25;9.25;;;;;14.07;66.97;101238.25;2092361;28;47752;-69
2021/11/14 03:45:33;;;;;;;;;9.67;9.00;;;;;14.06;66.76;101239.19;2092457;28;45501;-69
2021/11/14 03:46:35;;;;;;;;;6.67;6.00;;;;;14.06;66.90;101230.31;2092559;28;45467;-69
2021/11/14 03:47:38;;;;;;;;;12.00;10.50;;;;;14.06;67.03;101233.84;2092102;27;48050;-69
2021/11/14 03:48:41;;;;;;;;;8.75;8.00;;;;;14.06;66.90;101232.97;2084337;28;48026;-69
2021/11/14 03:49:41;;;;;;;;;5.50;5.50;;;;;14.06;67.08;101232.97;2088016;28;45967;-69
2021/11/14 03:50:42;;;;;;;;;11.00;11.00;;;;;14.06;67.16;101228.50;2092544;28;45194;-70
2021/11/14 03:51:42;;;;;;;;;11.00;10.67;;;;;14.06;66.77;101224.97;2087293;28;46080;-69
2021/11/14 03:52:46;;;;;;;;;7.00;6.67;;;;;14.06;66.94;101227.63;2085946;28;48055;-69
2021/11/14 03:53:47;;;;;;;;;9.00;9.00;;;;;14.07;67.05;101226.72;2092022;28;47391;-70
2021/11/14 03:54:47;;;;;;;;;8.00;8.00;;;;;14.07;66.73;101232.06;2089677;28;48105;-69
2021/11/14 03:55:49;;;;;;;;;9.67;9.67;;;;;14.07;66.92;101234.72;2097149;28;48143;-69
2021/11/14 03:56:50;;;;;;;;;10.00;10.00;;;;;14.06;66.79;101222.28;2091480;27;48186;-69
2021/11/14 03:57:51;;;;;;;;;9.67;8.00;;;;;14.06;67.14;101231.19;2091163;28;48416;-69
2021/11/14 03:58:51;;;;;;;;;10.00;10.00;;;;;14.05;66.94;101232.09;2108563;27;45639;-70
2021/11/14 03:59:52;;;;;;;;;12.67;9.00;;;;;14.04;66.88;101227.69;2106398;27;45553;-70
2021/11/14 04:00:56;;;;;;;;;9.00;9.00;;;;;14.04;66.86;101229.47;2092778;27;47591;-69
2021/11/14 04:01:56;;;;;;;;;7.00;7.00;;;;;14.04;67.08;101237.47;2092488;27;48242;-70
2021/11/14 04:02:57;;;;;;;;;8.00;8.00;;;;;14.03;67.19;101227.72;2094769;28;46817;-70
2021/11/14 04:03:58;;;;;;;;;10.33;9.67;;;;;14.03;67.08;101228.59;2091862;28;47255;-70
2021/11/14 04:04:58;;;;;;;;;10.00;9.33;;;;;14.03;66.92;101233.06;2091560;28;47282;-69
2021/11/14 04:05:59;;;;;;;;;10.00;9.00;;;;;14.04;66.83;101232.16;2094529;28;47979;-69
2021/11/14 04:07:00;;;;;;;;;9.25;9.25;;;;;14.03;66.94;101233.94;2094966;27;47150;-70
2021/11/14 04:08:07;;;;;;;;;10.67;9.67;;;;;14.05;67.02;101231.22;2098000;28;48059;-70
2021/11/14 04:09:07;;;;;;;;;9.50;9.50;;;;;14.06;67.13;101235.63;2093723;28;47373;-70
2021/11/14 04:10:09;;;;;;;;;8.00;8.00;;;;;14.05;66.93;101237.44;2096723;27;48513;-70
2021/11/14 04:11:09;;;;;;;;;7.75;7.75;;;;;14.05;66.88;101237.44;2092050;27;47050;-69
2021/11/14 04:12:10;;;;;;;;;9.00;9.00;;;;;14.06;66.95;101246.31;2092740;27;47121;-70
2021/11/14 04:13:11;;;;;;;;;7.33;7.33;;;;;14.05;66.82;101234.75;2097785;27;47358;-69
2021/11/14 04:14:11;;;;;;;;;10.25;9.00;;;;;14.05;67.21;101229.44;2093441;27;46458;-69
2021/11/14 04:15:15;;;;;;;;;10.33;8.33;;;;;14.06;67.26;101235.63;2094066;27;47558;-70
2021/11/14 04:16:16;;;;;;;;;9.00;8.00;;;;;14.06;66.94;101235.63;2095049;28;48375;-69
2021/11/14 04:17:16;;;;;;;;;9.00;9.00;;;;;14.06;66.81;101228.50;2094807;28;46991;-69
2021/11/14 04:18:17;;;;;;;;;8.00;8.00;;;;;14.07;66.92;101226.72;2095659;27;45954;-69
2021/11/14 04:19:17;;;;;;;;;7.67;7.33;;;;;14.06;66.82;101230.31;2097856;28;46971;-69
2021/11/14 04:20:18;;;;;;;;;8.00;8.00;;;;;14.06;66.90;101230.31;2084843;27;47604;-69
2021/11/14 04:21:19;;;;;;;;;9.00;8.33;;;;;14.06;66.67;101227.63;2089715;28;47211;-69
2021/11/14 04:22:19;;;;;;;;;8.67;8.67;;;;;14.06;66.69;101233.84;2100968;27;46279;-68
2021/11/14 04:23:21;;;;;;;;;11.00;9.00;;;;;14.06;66.68;101219.63;2099252;27;48419;-69
2021/11/14 04:24:21;;;;;;;;;8.75;7.25;;;;;14.06;66.90;101224.97;2099232;28;47429;-70
2021/11/14 04:25:23;;;;;;;;;8.33;8.33;;;;;14.06;67.18;101228.50;2095125;28;47373;-69
2021/11/14 04:26:26;;;;;;;;;9.50;9.50;;;;;14.06;67.08;101225.84;2097060;28;47266;-69
2021/11/14 04:27:26;;;;;;;;;8.25;8.25;;;;;14.07;67.17;101219.59;2099890;27;45276;-69
2021/11/14 04:28:27;;;;;;;;;10.33;9.67;;;;;14.07;66.93;101218.72;2088108;28;46119;-69
2021/11/14 04:29:27;;;;;;;;;9.33;8.33;;;;;14.07;67.00;101221.38;2090941;28;47952;-69
2021/11/14 04:30:28;;;;;;;;;9.00;9.00;;;;;14.07;67.07;101222.25;2097991;28;46864;-69
2021/11/14 04:31:29;;;;;;;;;11.50;9.50;;;;;14.08;66.70;101221.31;2096801;28;45381;-70
2021/11/14 04:32:29;;;;;;;;;10.67;9.00;;;;;14.09;66.78;101219.53;2099940;27;46104;-70
2021/11/14 04:33:31;;;;;;;;;8.00;8.00;;;;;14.08;66.87;101224.00;2100645;27;47181;-70
2021/11/14 04:34:31;;;;;;;;;8.50;8.50;;;;;14.09;66.71;101223.06;2099700;27;48484;-69
2021/11/14 04:35:33;;;;;;;;;11.00;10.00;;;;;14.09;67.05;101219.53;2099586;27;47281;-69
2021/11/14 04:36:33;;;;;;;;;9.00;8.75;;;;;14.09;66.69;101219.53;2099706;28;47343;-69
2021/11/14 04:37:34;;;;;;;;;9.00;9.00;;;;;14.09;67.09;101223.06;2098176;28;48216;-69
2021/11/14 04:38:36;;;;;;;;;7.50;7.25;;;;;14.10;66.77;101227.53;2096153;27;47096;-69
2021/11/14 04:39:36;;;;;;;;;12.50;11.25;;;;;14.09;66.81;101233.75;2097967;28;45332;-70
2021/11/14 04:40:39;;;;;;;;;10.67;9.67;;;;;14.11;66.94;101228.41;2090882;28;47062;-69
2021/11/14 04:41:40;;;;;;;;;9.50;8.75;;;;;14.11;66.55;101225.72;2100137;28;47177;-70
2021/11/14 04:42:40;;;;;;;;;10.75;9.25;;;;;14.12;66.82;101227.47;2097540;27;46320;-70
2021/11/14 04:43:41;;;;;;;;;8.67;8.67;;;;;14.11;67.02;101221.28;2084900;28;47296;-68